createdAt,value
2018-11-06T00:02:22.070Z,6.82
2018-11-06T00:04:56.287Z,6.73
2018-11-06T00:07:25.258Z,6.62
2018-11-06T00:09:54.240Z,6.57
2018-11-06T00:12:23.251Z,6.52
2018-11-06T00:14:52.246Z,6.53
2018-11-06T00:17:21.210Z,6.51
2018-11-06T00:19:50.326Z,6.58
2018-11-06T00:22:19.337Z,6.59
2018-11-06T00:24:48.334Z,6.52
2018-11-06T00:27:17.310Z,6.53
2018-11-06T00:29:46.445Z,6.57
2018-11-06T00:32:15.414Z,6.50
2018-11-06T00:34:44.415Z,6.42
2018-11-06T00:37:13.391Z,6.49
2018-11-06T00:39:42.399Z,6.46
2018-11-06T00:42:11.370Z,6.43
2018-11-06T00:44:40.366Z,6.37
2018-11-06T00:47:09.407Z,6.33
2018-11-06T00:49:38.398Z,6.23
2018-11-06T00:52:07.670Z,6.23
2018-11-06T00:54:36.670Z,6.12
2018-11-06T00:57:05.649Z,5.93
2018-11-06T00:59:34.633Z,5.86
2018-11-06T01:02:03.706Z,5.71
2018-11-06T01:04:32.695Z,5.83
2018-11-06T01:07:01.692Z,5.78
2018-11-06T01:09:30.658Z,5.63
2018-11-06T01:11:59.661Z,5.59
2018-11-06T01:14:28.674Z,5.63
2018-11-06T01:16:57.702Z,5.56
2018-11-06T01:19:26.715Z,5.46
2018-11-06T01:21:55.691Z,5.45
2018-11-06T01:24:24.678Z,5.44
2018-11-06T01:26:53.662Z,5.46
2018-11-06T01:29:22.682Z,5.52
2018-11-06T01:31:51.694Z,5.46
2018-11-06T01:34:20.958Z,5.47
2018-11-06T01:36:49.945Z,5.45
2018-11-06T01:39:18.948Z,5.38
2018-11-06T01:41:47.999Z,5.39
2018-11-06T01:44:17.597Z,5.31
2018-11-06T01:46:47.398Z,5.28
2018-11-06T01:49:16.376Z,5.20
2018-11-06T01:51:45.468Z,5.22
2018-11-06T01:54:14.454Z,5.19
2018-11-06T01:56:43.449Z,5.13
2018-11-06T01:59:12.426Z,5.10
2018-11-06T02:01:41.393Z,5.19
2018-11-06T02:04:10.383Z,5.19
2018-11-06T02:06:39.403Z,5.21
2018-11-06T02:09:09.262Z,5.17
2018-11-06T02:11:38.239Z,5.15
2018-11-06T02:14:07.466Z,5.23
2018-11-06T02:16:36.522Z,5.29
2018-11-06T02:19:05.905Z,5.25
2018-11-06T02:21:34.921Z,5.25
2018-11-06T02:24:03.979Z,5.29
2018-11-06T02:26:32.938Z,5.27
2018-11-06T02:29:01.942Z,5.33
2018-11-06T02:31:30.929Z,5.28
2018-11-06T02:33:59.956Z,5.34
2018-11-06T02:36:28.933Z,5.41
2018-11-06T02:38:57.896Z,5.57
2018-11-06T02:41:26.933Z,5.65
2018-11-06T02:43:55.864Z,5.63
2018-11-06T02:46:25.121Z,5.60
2018-11-06T02:48:54.117Z,5.64
2018-11-06T02:51:23.068Z,5.62
2018-11-06T02:53:52.059Z,5.66
2018-11-06T02:56:21.120Z,5.80
2018-11-06T02:58:50.111Z,5.92
2018-11-06T03:01:19.097Z,5.86
2018-11-06T03:03:48.061Z,5.88
2018-11-06T03:06:17.085Z,5.88
2018-11-06T03:08:46.029Z,5.82
2018-11-06T03:11:15.005Z,5.80
2018-11-06T03:13:43.958Z,5.88
2018-11-06T03:16:12.961Z,5.81
2018-11-06T03:18:41.919Z,5.81
2018-11-06T03:21:10.902Z,5.80
2018-11-06T03:23:39.861Z,5.74
2018-11-06T03:26:08.982Z,5.72
2018-11-06T03:28:37.958Z,5.68
2018-11-06T03:31:06.988Z,5.64
2018-11-06T03:33:35.942Z,5.64
2018-11-06T03:36:05.714Z,5.74
2018-11-06T03:38:34.656Z,5.64
2018-11-06T03:41:03.738Z,5.61
2018-11-06T03:43:32.693Z,5.61
2018-11-06T03:46:01.676Z,5.66
2018-11-06T03:48:30.646Z,5.74
2018-11-06T03:50:59.630Z,5.65
2018-11-06T03:53:28.719Z,5.51
2018-11-06T03:55:57.699Z,5.46
2018-11-06T03:58:26.654Z,5.41
2018-11-06T04:00:55.630Z,5.33
2018-11-06T04:03:24.578Z,5.24
2018-11-06T04:05:53.561Z,5.15
2018-11-06T04:08:22.548Z,5.19
2018-11-06T04:10:51.518Z,5.19
2018-11-06T04:13:20.485Z,5.10
2018-11-06T04:15:49.457Z,5.11
2018-11-06T04:18:18.405Z,5.17
2018-11-06T04:20:47.386Z,5.18
2018-11-06T04:23:16.333Z,5.14
2018-11-06T04:25:45.305Z,5.08
2018-11-06T04:28:14.285Z,5.14
2018-11-06T04:30:43.270Z,5.22
2018-11-06T04:33:12.217Z,5.18
2018-11-06T04:35:41.194Z,5.22
2018-11-06T04:38:10.318Z,5.14
2018-11-06T04:40:39.325Z,5.26
2018-11-06T04:43:08.285Z,5.18
2018-11-06T04:45:37.270Z,5.35
2018-11-06T04:48:06.530Z,5.30
2018-11-06T04:50:35.507Z,5.27
2018-11-06T04:53:04.553Z,5.20
2018-11-06T04:55:33.550Z,5.25
2018-11-06T04:58:02.528Z,5.21
2018-11-06T05:00:31.529Z,5.24
2018-11-06T05:03:00.500Z,5.19
2018-11-06T05:05:29.486Z,5.19
2018-11-06T05:07:58.453Z,5.19
2018-11-06T05:10:27.650Z,5.21
2018-11-06T05:12:56.625Z,5.14
2018-11-06T05:15:25.612Z,5.04
2018-11-06T05:17:54.579Z,5.07
2018-11-06T05:20:23.560Z,5.01
2018-11-06T05:22:52.540Z,4.99
2018-11-06T05:25:21.535Z,4.95
2018-11-06T05:27:50.480Z,4.96
2018-11-06T05:30:19.549Z,4.90
2018-11-06T05:32:48.550Z,4.82
2018-11-06T05:35:17.499Z,4.73
2018-11-06T05:37:46.446Z,5.01
2018-11-06T05:40:26.997Z,5.11
2018-11-06T05:42:55.957Z,5.24
2018-11-06T05:45:24.970Z,5.29
2018-11-06T05:47:53.910Z,5.31
2018-11-06T05:50:22.965Z,5.36
2018-11-06T05:52:51.915Z,5.39
2018-11-06T05:55:20.885Z,5.31
2018-11-06T05:57:49.866Z,5.23
2018-11-06T06:00:18.887Z,5.23
2018-11-06T06:02:47.813Z,5.34
2018-11-06T06:05:16.845Z,5.45
2018-11-06T06:07:45.802Z,5.37
2018-11-06T06:10:14.809Z,5.43
2018-11-06T06:12:43.854Z,5.52
2018-11-06T06:15:12.840Z,5.53
2018-11-06T06:17:41.798Z,5.56
2018-11-06T06:20:10.786Z,5.56
2018-11-06T06:22:39.814Z,5.58
2018-11-06T06:25:09.045Z,5.54
2018-11-06T06:27:38.005Z,5.51
2018-11-06T06:30:09.502Z,5.56
2018-11-06T06:32:38.474Z,5.53
2018-11-06T06:35:07.491Z,5.61
2018-11-06T06:37:36.561Z,5.51
2018-11-06T06:40:07.471Z,5.45
2018-11-06T06:42:36.345Z,5.53
2018-11-06T06:45:06.737Z,5.52
2018-11-06T06:47:35.772Z,5.64
2018-11-06T06:50:06.801Z,5.65
2018-11-06T06:52:35.822Z,5.65
2018-11-06T06:55:06.105Z,5.61
2018-11-06T06:57:35.297Z,5.57
2018-11-06T07:00:04.268Z,5.49
2018-11-06T07:02:33.278Z,5.54
2018-11-06T07:05:02.263Z,5.62
2018-11-06T07:07:31.218Z,5.73
2018-11-06T07:10:00.194Z,5.65
2018-11-06T07:12:29.334Z,5.76
2018-11-06T07:14:58.314Z,5.72
2018-11-06T07:17:27.380Z,5.80
2018-11-06T07:19:56.371Z,5.76
2018-11-06T07:22:25.340Z,5.88
2018-11-06T07:24:54.303Z,5.86
2018-11-06T07:27:23.265Z,5.91
2018-11-06T07:29:52.426Z,5.99
2018-11-06T07:32:21.381Z,6.05
2018-11-06T07:34:50.447Z,5.94
2018-11-06T07:37:19.318Z,6.01
2018-11-06T07:39:48.302Z,5.99
2018-11-06T07:42:17.257Z,6.04
2018-11-06T07:44:46.226Z,6.10
2018-11-06T07:47:15.194Z,6.16
2018-11-06T07:49:44.269Z,6.12
2018-11-06T07:52:13.249Z,6.11
2018-11-06T07:54:42.228Z,6.18
2018-11-06T07:57:11.191Z,6.11
2018-11-06T07:59:40.179Z,6.33
2018-11-06T08:02:09.172Z,6.24
2018-11-06T08:04:38.125Z,6.18
2018-11-06T08:07:07.117Z,6.17
2018-11-06T08:09:36.177Z,6.15
2018-11-06T08:12:05.629Z,6.19
2018-11-06T08:14:34.797Z,6.21
2018-11-06T08:17:03.750Z,6.28
2018-11-06T08:19:32.709Z,6.35
2018-11-06T08:22:01.766Z,6.40
2018-11-06T08:24:30.760Z,6.24
2018-11-06T08:26:59.922Z,6.29
2018-11-06T08:29:28.906Z,6.32
2018-11-06T08:31:58.259Z,6.37
2018-11-06T08:34:26.826Z,6.34
2018-11-06T08:36:55.811Z,6.41
2018-11-06T08:39:24.749Z,6.49
2018-11-06T08:41:53.819Z,6.43
2018-11-06T08:44:22.758Z,6.62
2018-11-06T08:46:51.739Z,6.51
2018-11-06T08:49:20.680Z,6.55
2018-11-06T08:51:49.696Z,6.61
2018-11-06T08:54:18.629Z,6.62
2018-11-06T08:56:47.669Z,6.53
2018-11-06T08:59:16.626Z,6.45
2018-11-06T09:01:45.648Z,6.38
2018-11-06T09:04:14.570Z,6.45
2018-11-06T09:06:43.657Z,6.55
2018-11-06T09:09:12.627Z,6.71
2018-11-06T09:11:41.609Z,6.70
2018-11-06T09:14:10.560Z,6.85
2018-11-06T09:16:39.598Z,6.79
2018-11-06T09:19:09.023Z,6.87
2018-11-06T09:21:38.021Z,6.85
2018-11-06T09:24:07.109Z,6.90
2018-11-06T09:26:36.254Z,6.87
2018-11-06T09:29:05.654Z,7.02
2018-11-06T09:31:34.583Z,7.12
2018-11-06T09:34:03.545Z,7.18
2018-11-06T09:36:32.609Z,7.08
2018-11-06T09:39:01.585Z,7.16
2018-11-06T09:41:30.563Z,7.15
2018-11-06T09:43:59.528Z,7.37
2018-11-06T09:46:28.514Z,7.49
2018-11-06T09:48:57.546Z,7.57
2018-11-06T09:51:26.526Z,7.58
2018-11-06T09:53:55.489Z,7.50
2018-11-06T09:56:24.466Z,7.65
2018-11-06T09:58:53.438Z,7.62
2018-11-06T10:01:22.438Z,7.71
2018-11-06T10:03:51.471Z,7.86
2018-11-06T10:06:20.564Z,8.06
2018-11-06T10:08:49.487Z,8.12
2018-11-06T10:11:18.448Z,8.04
2018-11-06T10:13:47.485Z,8.23
2018-11-06T10:16:16.480Z,8.13
2018-11-06T10:18:45.448Z,8.20
2018-11-06T10:21:14.483Z,8.38
2018-11-06T10:23:43.387Z,8.40
2018-11-06T10:26:12.366Z,8.68
2018-11-06T10:28:41.359Z,8.47
2018-11-06T10:31:10.337Z,8.46
2018-11-06T10:33:39.329Z,8.31
2018-11-06T10:36:08.330Z,8.29
2018-11-06T10:38:37.314Z,8.30
2018-11-06T10:41:06.303Z,8.31
2018-11-06T10:43:41.645Z,8.31
2018-11-06T10:46:10.601Z,8.28
2018-11-06T10:48:39.558Z,8.22
2018-11-06T10:51:08.547Z,8.25
2018-11-06T10:53:37.535Z,8.32
2018-11-06T10:56:06.518Z,8.41
2018-11-06T10:58:35.713Z,8.43
2018-11-06T11:01:10.272Z,8.52
2018-11-06T11:03:45.457Z,8.47
2018-11-06T11:06:14.456Z,8.54
2018-11-06T11:08:43.474Z,8.72
2018-11-06T11:11:12.443Z,8.86
2018-11-06T11:13:41.436Z,9.05
2018-11-06T11:16:10.421Z,9.17
2018-11-06T11:18:39.409Z,9.09
2018-11-06T11:21:08.365Z,9.11
2018-11-06T11:23:37.351Z,9.19
2018-11-06T11:26:06.333Z,9.27
2018-11-06T11:28:35.597Z,9.37
2018-11-06T11:31:04.917Z,9.33
2018-11-06T11:33:33.869Z,9.43
2018-11-06T11:36:02.861Z,9.59
2018-11-06T11:38:31.810Z,9.71
2018-11-06T11:41:00.785Z,9.81
2018-11-06T11:43:29.734Z,9.86
2018-11-06T11:45:58.744Z,9.98
2018-11-06T11:48:27.688Z,10.08
2018-11-06T11:50:56.654Z,9.99
2018-11-06T11:53:25.653Z,10.07
2018-11-06T11:55:54.633Z,9.69
2018-11-06T11:58:23.627Z,9.71
2018-11-06T12:00:53.434Z,9.81
2018-11-06T12:03:22.402Z,9.87
2018-11-06T12:05:51.382Z,9.82
2018-11-06T12:08:20.639Z,9.81
2018-11-06T12:10:49.623Z,9.97
2018-11-06T12:13:18.577Z,9.93
2018-11-06T12:15:47.557Z,9.99
2018-11-06T12:18:16.582Z,9.97
2018-11-06T12:20:45.509Z,9.85
2018-11-06T12:23:14.485Z,9.77
2018-11-06T12:25:43.715Z,9.77
2018-11-06T12:28:12.518Z,9.73
2018-11-06T12:30:41.499Z,9.66
2018-11-06T12:33:10.463Z,9.80
2018-11-06T12:35:39.452Z,9.84
2018-11-06T12:38:08.423Z,9.88
2018-11-06T12:40:37.477Z,9.79
2018-11-06T12:43:06.537Z,9.94
2018-11-06T12:45:35.435Z,9.90
2018-11-06T12:48:04.634Z,9.89
2018-11-06T12:50:33.614Z,10.17
2018-11-06T12:53:02.583Z,10.00
2018-11-06T12:55:31.710Z,9.95
2018-11-06T12:58:00.673Z,9.81
2018-11-06T13:00:29.678Z,9.97
2018-11-06T13:02:58.641Z,10.05
2018-11-06T13:05:27.693Z,10.02
2018-11-06T13:07:56.649Z,10.11
2018-11-06T13:10:25.630Z,10.38
2018-11-06T13:12:54.597Z,10.09
2018-11-06T13:15:23.642Z,10.05
2018-11-06T13:17:52.598Z,10.05
2018-11-06T13:20:21.583Z,10.11
2018-11-06T13:22:50.561Z,10.14
2018-11-06T13:25:19.553Z,10.32
2018-11-06T13:27:48.537Z,10.37
2018-11-06T13:30:18.664Z,10.52
2018-11-06T13:32:48.355Z,10.44
2018-11-06T13:35:17.353Z,10.46
2018-11-06T13:37:46.309Z,10.47
2018-11-06T13:40:16.177Z,10.45
2018-11-06T13:42:45.705Z,10.30
2018-11-06T13:45:21.322Z,10.22
2018-11-06T13:47:50.196Z,10.05
2018-11-06T13:50:19.334Z,10.26
2018-11-06T13:52:48.414Z,10.33
2018-11-06T13:55:17.778Z,10.34
2018-11-06T13:57:47.142Z,10.24
2018-11-06T14:00:18.665Z,10.26
2018-11-06T14:02:47.625Z,10.19
2018-11-06T14:05:16.874Z,10.34
2018-11-06T14:07:46.049Z,10.32
2018-11-06T14:10:15.042Z,10.31
2018-11-06T14:12:44.895Z,10.34
2018-11-06T14:15:13.849Z,10.42
2018-11-06T14:17:42.845Z,10.43
2018-11-06T14:20:13.174Z,10.48
2018-11-06T14:22:42.397Z,10.45
2018-11-06T14:25:11.366Z,10.52
2018-11-06T14:27:40.512Z,10.38
2018-11-06T14:30:11.339Z,10.41
2018-11-06T14:32:40.649Z,10.22
2018-11-06T14:35:11.170Z,10.17
2018-11-06T14:37:40.642Z,10.11
2018-11-06T14:40:10.879Z,10.14
2018-11-06T14:42:40.706Z,10.02
2018-11-06T14:45:10.966Z,10.07
2018-11-06T14:47:39.998Z,10.05
2018-11-06T14:50:09.545Z,10.12
2018-11-06T14:52:38.677Z,10.08
2018-11-06T14:55:08.846Z,10.05
2018-11-06T14:57:37.907Z,10.07
2018-11-06T15:00:08.980Z,10.01
2018-11-06T15:02:37.958Z,10.02
2018-11-06T15:05:06.990Z,9.93
2018-11-06T15:07:35.983Z,9.91
2018-11-06T15:10:06.032Z,9.82
2018-11-06T15:12:35.043Z,9.80
2018-11-06T15:15:03.966Z,9.78
2018-11-06T15:17:32.934Z,9.71
2018-11-06T15:20:02.022Z,9.72
2018-11-06T15:22:31.022Z,9.63
2018-11-06T15:24:59.977Z,9.61
2018-11-06T15:27:28.993Z,9.60
2018-11-06T15:29:57.954Z,9.53
2018-11-06T15:32:27.039Z,9.55
2018-11-06T15:34:55.902Z,9.52
2018-11-06T15:37:24.877Z,9.40
2018-11-06T15:39:53.925Z,9.34
2018-11-06T15:42:22.906Z,9.26
2018-11-06T15:44:51.862Z,9.25
2018-11-06T15:47:20.882Z,9.23
2018-11-06T15:49:49.834Z,9.08
2018-11-06T15:52:18.994Z,9.01
2018-11-06T15:54:47.960Z,9.10
2018-11-06T15:57:16.942Z,8.99
2018-11-06T15:59:45.893Z,9.15
2018-11-06T16:02:14.866Z,9.44
2018-11-06T16:04:43.938Z,9.60
2018-11-06T16:07:12.902Z,9.82
2018-11-06T16:09:41.861Z,9.90
2018-11-06T16:12:10.883Z,9.82
2018-11-06T16:14:39.871Z,9.78
2018-11-06T16:17:08.861Z,9.89
2018-11-06T16:19:37.860Z,9.85
2018-11-06T16:22:07.002Z,9.83
2018-11-06T16:24:35.966Z,9.96
2018-11-06T16:27:04.978Z,9.97
2018-11-06T16:29:33.951Z,9.86
2018-11-06T16:32:03.026Z,9.77
2018-11-06T16:34:31.998Z,9.82
2018-11-06T16:37:00.974Z,9.78
2018-11-06T16:39:29.929Z,9.83
2018-11-06T16:41:58.898Z,9.84
2018-11-06T16:44:27.884Z,9.74
2018-11-06T16:46:57.083Z,9.83
2018-11-06T16:49:26.094Z,9.82
2018-11-06T16:51:55.130Z,9.78
2018-11-06T16:54:24.084Z,9.78
2018-11-06T16:56:53.250Z,9.80
2018-11-06T16:59:22.312Z,9.82
2018-11-06T17:01:51.309Z,9.83
2018-11-06T17:04:20.386Z,9.85
2018-11-06T17:06:50.641Z,9.88
2018-11-06T17:09:20.636Z,9.82
2018-11-06T17:11:49.622Z,9.84
2018-11-06T17:14:18.612Z,9.78
2018-11-06T17:16:47.631Z,9.81
2018-11-06T17:19:16.623Z,9.72
2018-11-06T17:21:47.973Z,9.85
2018-11-06T17:24:17.017Z,9.65
2018-11-06T17:26:46.066Z,9.54
2018-11-06T17:29:15.022Z,9.37
2018-11-06T17:31:44.014Z,9.26
2018-11-06T17:34:13.184Z,9.17
2018-11-06T17:36:42.170Z,9.08
2018-11-06T17:39:12.561Z,8.97
2018-11-06T17:41:41.563Z,8.83
2018-11-06T17:44:10.541Z,8.77
2018-11-06T17:46:39.490Z,8.77
2018-11-06T17:49:08.493Z,8.66
2018-11-06T17:51:37.473Z,8.61
2018-11-06T17:54:06.587Z,8.53
2018-11-06T17:56:35.573Z,8.56
2018-11-06T17:59:04.948Z,8.50
2018-11-06T18:01:33.902Z,8.49
2018-11-06T18:04:02.927Z,8.49
2018-11-06T18:06:31.835Z,8.68
2018-11-06T18:09:01.108Z,8.69
2018-11-06T18:11:30.045Z,8.66
2018-11-06T18:13:59.026Z,8.54
2018-11-06T18:16:27.978Z,8.62
2018-11-06T18:18:56.973Z,8.65
2018-11-06T18:21:26.011Z,8.85
2018-11-06T18:23:55.031Z,9.04
2018-11-06T18:26:24.031Z,9.14
2018-11-06T18:28:53.097Z,9.33
2018-11-06T18:31:22.262Z,9.39
2018-11-06T18:33:51.318Z,9.40
2018-11-06T18:36:20.266Z,9.51
2018-11-06T18:38:49.245Z,9.48
2018-11-06T18:41:18.228Z,9.35
2018-11-06T18:43:47.363Z,9.44
2018-11-06T18:46:16.378Z,9.38
2018-11-06T18:48:45.648Z,9.26
2018-11-06T18:51:14.706Z,9.27
2018-11-06T18:53:43.729Z,9.32
2018-11-06T18:56:12.726Z,9.27
2018-11-06T18:58:41.770Z,9.30
2018-11-06T19:01:10.779Z,9.28
2018-11-06T19:03:45.081Z,9.23
2018-11-06T19:06:14.050Z,9.28
2018-11-06T19:08:43.039Z,9.22
2018-11-06T19:11:12.225Z,9.17
2018-11-06T19:13:41.321Z,9.13
2018-11-06T19:16:10.262Z,9.12
2018-11-06T19:18:39.273Z,9.08
2018-11-06T19:21:08.358Z,9.05
2018-11-06T19:23:37.559Z,8.95
2018-11-06T19:26:06.523Z,9.00
2018-11-06T19:28:35.516Z,9.03
2018-11-06T19:31:04.571Z,8.96
2018-11-06T19:33:33.550Z,8.99
2018-11-06T19:36:02.510Z,8.98
2018-11-06T19:38:31.614Z,8.89
2018-11-06T19:41:00.579Z,8.79
2018-11-06T19:43:29.597Z,8.69
2018-11-06T19:45:58.565Z,8.66
2018-11-06T19:48:27.592Z,8.70
2018-11-06T19:50:56.553Z,8.67
2018-11-06T19:53:25.613Z,8.62
2018-11-06T19:55:54.511Z,8.61
2018-11-06T19:58:23.499Z,8.62
2018-11-06T20:00:52.507Z,8.52
2018-11-06T20:03:21.496Z,8.53
2018-11-06T20:05:50.516Z,8.48
2018-11-06T20:08:19.423Z,8.52
2018-11-06T20:10:48.548Z,8.50
2018-11-06T20:13:17.662Z,8.46
2018-11-06T20:15:46.667Z,8.44
2018-11-06T20:18:15.629Z,8.44
2018-11-06T20:20:44.733Z,8.45
2018-11-06T20:23:13.726Z,8.49
2018-11-06T20:25:42.689Z,8.53
2018-11-06T20:28:11.686Z,8.48
2018-11-06T20:30:40.737Z,8.49
2018-11-06T20:33:09.816Z,8.47
2018-11-06T20:35:38.816Z,8.42
2018-11-06T20:38:07.791Z,8.39
2018-11-06T20:40:36.718Z,8.37
2018-11-06T20:43:05.861Z,8.37
2018-11-06T20:45:35.211Z,8.34
2018-11-06T20:48:04.199Z,8.32
2018-11-06T20:50:33.162Z,8.31
2018-11-06T20:53:02.216Z,8.31
2018-11-06T20:55:31.143Z,8.30
2018-11-06T20:58:00.091Z,8.24
2018-11-06T21:00:29.977Z,8.18
2018-11-06T21:03:01.239Z,8.17
2018-11-06T21:05:30.222Z,8.14
2018-11-06T21:07:59.233Z,8.10
2018-11-06T21:10:30.658Z,8.09
2018-11-06T21:12:59.811Z,8.00
2018-11-06T21:15:28.740Z,7.96
2018-11-06T21:17:57.819Z,7.92
2018-11-06T21:20:26.837Z,7.89
2018-11-06T21:22:55.721Z,7.88
2018-11-06T21:25:24.842Z,7.89
2018-11-06T21:27:53.690Z,7.91
2018-11-06T21:30:22.685Z,7.87
2018-11-06T21:32:52.761Z,7.84
2018-11-06T21:35:21.827Z,7.83
2018-11-06T21:37:50.921Z,7.83
2018-11-06T21:40:20.937Z,7.85
2018-11-06T21:42:50.585Z,7.86
2018-11-06T21:45:19.688Z,7.88
2018-11-06T21:47:49.433Z,7.88
2018-11-06T21:50:18.781Z,7.83
2018-11-06T21:52:48.051Z,7.79
2018-11-06T21:55:18.362Z,7.79
2018-11-06T21:57:47.370Z,7.74
2018-11-06T22:00:17.684Z,7.72
2018-11-06T22:02:46.609Z,7.68
2018-11-06T22:05:16.927Z,7.70
2018-11-06T22:07:46.141Z,7.72
2018-11-06T22:10:16.458Z,7.67
2018-11-06T22:12:45.891Z,7.62
2018-11-06T22:15:15.980Z,7.60
2018-11-06T22:17:44.950Z,7.58
2018-11-06T22:20:15.137Z,7.56
2018-11-06T22:22:44.753Z,7.58
2018-11-06T22:25:13.749Z,7.59
2018-11-06T22:27:43.110Z,7.56
2018-11-06T22:30:13.100Z,7.53
2018-11-06T22:32:42.838Z,7.52
2018-11-06T22:35:13.006Z,7.52
2018-11-06T22:37:42.101Z,7.68
2018-11-06T22:40:12.490Z,7.74
2018-11-06T22:42:41.545Z,7.74
2018-11-06T22:45:12.439Z,7.73
2018-11-06T22:47:41.700Z,7.73
2018-11-06T22:50:12.358Z,7.73
2018-11-06T22:52:41.517Z,7.79
2018-11-06T22:55:10.503Z,7.93
2018-11-06T22:57:39.552Z,7.92
2018-11-06T23:00:12.547Z,7.83
2018-11-06T23:02:41.846Z,7.79
2018-11-06T23:05:10.811Z,7.79
2018-11-06T23:07:45.022Z,7.89
2018-11-06T23:10:14.007Z,7.82
2018-11-06T23:12:43.234Z,7.81
2018-11-06T23:15:13.211Z,7.80
2018-11-06T23:17:42.223Z,7.79
2018-11-06T23:20:11.177Z,7.73
2018-11-06T23:22:40.238Z,7.72
2018-11-06T23:25:09.296Z,7.72
2018-11-06T23:27:38.194Z,7.70
2018-11-06T23:30:09.438Z,7.64
2018-11-06T23:32:38.416Z,7.67
2018-11-06T23:35:07.422Z,7.61
2018-11-06T23:37:36.483Z,7.58
2018-11-06T23:40:05.934Z,7.52
2018-11-06T23:42:34.886Z,7.51
2018-11-06T23:45:04.351Z,7.50
2018-11-06T23:47:33.481Z,7.49
2018-11-06T23:50:03.153Z,7.43
2018-11-06T23:52:32.120Z,7.43
2018-11-06T23:55:01.105Z,7.38
2018-11-06T23:57:30.461Z,7.44
